MIA weather

Miami International Airport
Miami, Florida, United States

Public forecast

Using degrees Fahrenheit for public forecast. Weather courtesy of forecast.io.

METAR (pilot weather report)

Retrieved 2018/02/24 10:53 UTC (57 minutes ago):

KMIA 241053Z 10010KT 10SM -RA FEW023 FEW040 SCT080 23/20 A3019 RMK AO2 SLP223 P0000 T02280200

TAF (pilot weather forecast)

Retrieved 2018/02/24 06:45 UTC (5 hours ago):

TAF KMIA 240543Z 2406/2512 09010KT P6SM VCSH SCT025 BKN050 FM241400 11015KT P6SM FEW025 SCT050 FM250000 11010KT P6SM SCT025 BKN050